sensor_id;sensor_type;location;lat;lon;timestamp;temperature;humidity
76040;SHT30;64736;50.462;4.850;2023-08-08T00:00:06;13.67;85.29
76040;SHT30;64736;50.462;4.850;2023-08-08T00:02:32;13.65;85.30
76040;SHT30;64736;50.462;4.850;2023-08-08T00:04:58;13.65;85.26
76040;SHT30;64736;50.462;4.850;2023-08-08T00:07:23;13.62;85.40
76040;SHT30;64736;50.462;4.850;2023-08-08T00:09:49;13.59;85.53
76040;SHT30;64736;50.462;4.850;2023-08-08T00:12:15;13.55;85.74
76040;SHT30;64736;50.462;4.850;2023-08-08T00:14:40;13.55;85.69
76040;SHT30;64736;50.462;4.850;2023-08-08T00:17:06;13.53;85.86
76040;SHT30;64736;50.462;4.850;2023-08-08T00:19:32;13.53;86.00
76040;SHT30;64736;50.462;4.850;2023-08-08T00:21:58;13.48;86.13
76040;SHT30;64736;50.462;4.850;2023-08-08T00:24:23;13.46;86.43
76040;SHT30;64736;50.462;4.850;2023-08-08T00:26:49;13.43;86.77
76040;SHT30;64736;50.462;4.850;2023-08-08T00:29:14;13.43;86.71
76040;SHT30;64736;50.462;4.850;2023-08-08T00:31:40;13.40;86.90
76040;SHT30;64736;50.462;4.850;2023-08-08T00:34:06;13.40;87.05
76040;SHT30;64736;50.462;4.850;2023-08-08T00:36:32;13.37;87.14
76040;SHT30;64736;50.462;4.850;2023-08-08T00:38:57;13.38;87.27
76040;SHT30;64736;50.462;4.850;2023-08-08T00:41:23;13.36;87.40
76040;SHT30;64736;50.462;4.850;2023-08-08T00:43:49;13.34;87.58
76040;SHT30;64736;50.462;4.850;2023-08-08T00:46:18;13.30;87.68
76040;SHT30;64736;50.462;4.850;2023-08-08T00:48:46;13.31;87.81
76040;SHT30;64736;50.462;4.850;2023-08-08T00:51:13;13.27;87.93
76040;SHT30;64736;50.462;4.850;2023-08-08T00:53:39;13.24;88.10
76040;SHT30;64736;50.462;4.850;2023-08-08T00:56:05;13.24;88.18
76040;SHT30;64736;50.462;4.850;2023-08-08T00:58:31;13.21;88.27
76040;SHT30;64736;50.462;4.850;2023-08-08T01:00:56;13.16;88.50
76040;SHT30;64736;50.462;4.850;2023-08-08T01:03:26;13.17;88.59
76040;SHT30;64736;50.462;4.850;2023-08-08T01:09:08;13.16;88.83
76040;SHT30;64736;50.462;4.850;2023-08-08T01:11:36;13.14;88.84
76040;SHT30;64736;50.462;4.850;2023-08-08T01:14:02;13.16;88.94
76040;SHT30;64736;50.462;4.850;2023-08-08T01:16:29;13.13;89.04
76040;SHT30;64736;50.462;4.850;2023-08-08T01:18:55;13.09;89.14
76040;SHT30;64736;50.462;4.850;2023-08-08T01:21:23;13.11;89.15
76040;SHT30;64736;50.462;4.850;2023-08-08T01:24:11;13.11;89.15
76040;SHT30;64736;50.462;4.850;2023-08-08T01:26:39;13.09;89.27
76040;SHT30;64736;50.462;4.850;2023-08-08T01:29:06;13.04;89.30
76040;SHT30;64736;50.462;4.850;2023-08-08T01:31:32;13.03;89.36
76040;SHT30;64736;50.462;4.850;2023-08-08T01:33:58;13.02;89.34
76040;SHT30;64736;50.462;4.850;2023-08-08T01:36:53;13.00;89.43
76040;SHT30;64736;50.462;4.850;2023-08-08T01:39:27;13.00;89.47
76040;SHT30;64736;50.462;4.850;2023-08-08T01:41:56;12.99;89.51
76040;SHT30;64736;50.462;4.850;2023-08-08T01:44:22;12.99;89.49
76040;SHT30;64736;50.462;4.850;2023-08-08T01:46:52;13.02;89.39
76040;SHT30;64736;50.462;4.850;2023-08-08T01:49:18;12.97;89.55
76040;SHT30;64736;50.462;4.850;2023-08-08T01:51:45;12.96;89.55
76040;SHT30;64736;50.462;4.850;2023-08-08T01:54:10;12.96;89.60
76040;SHT30;64736;50.462;4.850;2023-08-08T01:56:36;12.92;89.81
76040;SHT30;64736;50.462;4.850;2023-08-08T01:59:02;12.96;89.65
76040;SHT30;64736;50.462;4.850;2023-08-08T02:01:28;12.93;89.67
76040;SHT30;64736;50.462;4.850;2023-08-08T02:03:53;12.97;89.79
76040;SHT30;64736;50.462;4.850;2023-08-08T02:06:19;12.95;89.81
76040;SHT30;64736;50.462;4.850;2023-08-08T02:08:45;12.95;89.84
76040;SHT30;64736;50.462;4.850;2023-08-08T02:11:11;12.93;89.92
76040;SHT30;64736;50.462;4.850;2023-08-08T02:13:37;12.95;89.97
76040;SHT30;64736;50.462;4.850;2023-08-08T02:16:03;12.93;90.07
76040;SHT30;64736;50.462;4.850;2023-08-08T02:18:29;12.93;90.04
76040;SHT30;64736;50.462;4.850;2023-08-08T02:20:55;12.97;89.94
76040;SHT30;64736;50.462;4.850;2023-08-08T02:23:20;12.96;89.98
76040;SHT30;64736;50.462;4.850;2023-08-08T02:25:46;12.97;90.01
76040;SHT30;64736;50.462;4.850;2023-08-08T02:28:12;12.96;90.13
76040;SHT30;64736;50.462;4.850;2023-08-08T02:30:38;12.96;90.10
76040;SHT30;64736;50.462;4.850;2023-08-08T02:33:04;12.95;90.20
76040;SHT30;64736;50.462;4.850;2023-08-08T02:35:30;12.97;90.16
76040;SHT30;64736;50.462;4.850;2023-08-08T02:37:56;12.93;90.30
76040;SHT30;64736;50.462;4.850;2023-08-08T02:40:22;12.88;90.44
76040;SHT30;64736;50.462;4.850;2023-08-08T02:42:49;12.90;90.51
76040;SHT30;64736;50.462;4.850;2023-08-08T02:45:15;12.90;90.58
76040;SHT30;64736;50.462;4.850;2023-08-08T02:47:41;12.89;90.58
76040;SHT30;64736;50.462;4.850;2023-08-08T02:50:07;12.89;90.67
76040;SHT30;64736;50.462;4.850;2023-08-08T02:52:33;12.85;90.81
76040;SHT30;64736;50.462;4.850;2023-08-08T02:54:59;12.83;90.98
76040;SHT30;64736;50.462;4.850;2023-08-08T02:57:25;12.83;90.98
76040;SHT30;64736;50.462;4.850;2023-08-08T02:59:50;12.81;91.09
76040;SHT30;64736;50.462;4.850;2023-08-08T03:02:16;12.81;91.19
76040;SHT30;64736;50.462;4.850;2023-08-08T03:04:42;12.79;91.24
76040;SHT30;64736;50.462;4.850;2023-08-08T03:07:08;12.79;91.28
76040;SHT30;64736;50.462;4.850;2023-08-08T03:09:33;12.78;91.40
76040;SHT30;64736;50.462;4.850;2023-08-08T03:11:59;12.76;91.49
76040;SHT30;64736;50.462;4.850;2023-08-08T03:14:25;12.76;91.52
76040;SHT30;64736;50.462;4.850;2023-08-08T03:16:51;12.75;91.61
76040;SHT30;64736;50.462;4.850;2023-08-08T03:19:17;12.75;91.69
76040;SHT30;64736;50.462;4.850;2023-08-08T03:21:44;12.66;91.69
76040;SHT30;64736;50.462;4.850;2023-08-08T03:24:09;12.72;91.80
76040;SHT30;64736;50.462;4.850;2023-08-08T03:26:36;12.71;91.88
76040;SHT30;64736;50.462;4.850;2023-08-08T03:29:02;12.68;91.96
76040;SHT30;64736;50.462;4.850;2023-08-08T03:31:27;12.65;92.04
76040;SHT30;64736;50.462;4.850;2023-08-08T03:33:53;12.65;92.07
76040;SHT30;64736;50.462;4.850;2023-08-08T03:36:19;12.63;92.17
76040;SHT30;64736;50.462;4.850;2023-08-08T03:38:46;12.63;92.10
76040;SHT30;64736;50.462;4.850;2023-08-08T03:41:12;12.63;92.20
76040;SHT30;64736;50.462;4.850;2023-08-08T03:43:39;12.61;92.26
76040;SHT30;64736;50.462;4.850;2023-08-08T03:46:05;12.62;92.31
76040;SHT30;64736;50.462;4.850;2023-08-08T03:48:31;12.62;92.31
76040;SHT30;64736;50.462;4.850;2023-08-08T03:50:57;12.66;92.35
76040;SHT30;64736;50.462;4.850;2023-08-08T03:53:22;12.73;92.09
76040;SHT30;64736;50.462;4.850;2023-08-08T03:55:48;12.79;91.93
76040;SHT30;64736;50.462;4.850;2023-08-08T03:58:14;12.81;91.85
76040;SHT30;64736;50.462;4.850;2023-08-08T04:00:40;12.79;91.81
76040;SHT30;64736;50.462;4.850;2023-08-08T04:03:16;12.79;91.85
76040;SHT30;64736;50.462;4.850;2023-08-08T04:05:46;12.76;91.98
76040;SHT30;64736;50.462;4.850;2023-08-08T04:08:15;12.78;92.02
76040;SHT30;64736;50.462;4.850;2023-08-08T04:10:42;12.85;91.79
76040;SHT30;64736;50.462;4.850;2023-08-08T04:13:07;12.85;91.72
76040;SHT30;64736;50.462;4.850;2023-08-08T04:15:33;12.85;91.74
76040;SHT30;64736;50.462;4.850;2023-08-08T04:17:59;12.82;91.84
76040;SHT30;64736;50.462;4.850;2023-08-08T04:20:25;12.75;92.05
76040;SHT30;64736;50.462;4.850;2023-08-08T04:22:51;12.78;92.11
76040;SHT30;64736;50.462;4.850;2023-08-08T04:25:16;12.75;92.18
76040;SHT30;64736;50.462;4.850;2023-08-08T04:27:42;12.71;92.31
76040;SHT30;64736;50.462;4.850;2023-08-08T04:30:08;12.68;92.36
76040;SHT30;64736;50.462;4.850;2023-08-08T04:32:34;12.65;92.60
76040;SHT30;64736;50.462;4.850;2023-08-08T04:35:00;12.61;92.64
76040;SHT30;64736;50.462;4.850;2023-08-08T04:37:26;12.61;92.77
76040;SHT30;64736;50.462;4.850;2023-08-08T04:39:51;12.63;92.72
76040;SHT30;64736;50.462;4.850;2023-08-08T04:42:17;12.61;92.72
76040;SHT30;64736;50.462;4.850;2023-08-08T04:44:43;12.62;92.69
76040;SHT30;64736;50.462;4.850;2023-08-08T04:47:09;12.62;92.67
76040;SHT30;64736;50.462;4.850;2023-08-08T04:49:34;12.62;92.77
76040;SHT30;64736;50.462;4.850;2023-08-08T04:52:00;12.59;92.81
76040;SHT30;64736;50.462;4.850;2023-08-08T04:54:26;12.62;92.74
76040;SHT30;64736;50.462;4.850;2023-08-08T04:56:51;12.62;92.70
76040;SHT30;64736;50.462;4.850;2023-08-08T04:59:17;12.63;92.85
76040;SHT30;64736;50.462;4.850;2023-08-08T05:01:43;12.62;92.79
76040;SHT30;64736;50.462;4.850;2023-08-08T05:04:09;12.61;92.86
76040;SHT30;64736;50.462;4.850;2023-08-08T05:06:35;12.62;92.89
76040;SHT30;64736;50.462;4.850;2023-08-08T05:09:01;12.65;92.89
76040;SHT30;64736;50.462;4.850;2023-08-08T05:11:26;12.63;92.88
76040;SHT30;64736;50.462;4.850;2023-08-08T05:13:52;12.63;92.91
76040;SHT30;64736;50.462;4.850;2023-08-08T05:16:18;12.63;92.99
76040;SHT30;64736;50.462;4.850;2023-08-08T05:18:44;12.66;92.96
76040;SHT30;64736;50.462;4.850;2023-08-08T05:21:10;12.68;92.87
76040;SHT30;64736;50.462;4.850;2023-08-08T05:23:36;12.71;92.91
76040;SHT30;64736;50.462;4.850;2023-08-08T05:26:02;12.69;92.94
76040;SHT30;64736;50.462;4.850;2023-08-08T05:28:29;12.73;92.91
76040;SHT30;64736;50.462;4.850;2023-08-08T05:30:54;12.76;92.90
76040;SHT30;64736;50.462;4.850;2023-08-08T05:33:22;12.76;92.91
76040;SHT30;64736;50.462;4.850;2023-08-08T05:35:47;12.81;92.86
76040;SHT30;64736;50.462;4.850;2023-08-08T05:38:13;12.83;92.80
76040;SHT30;64736;50.462;4.850;2023-08-08T05:40:39;12.88;92.75
76040;SHT30;64736;50.462;4.850;2023-08-08T05:43:04;12.90;92.61
76040;SHT30;64736;50.462;4.850;2023-08-08T05:45:30;12.95;92.52
76040;SHT30;64736;50.462;4.850;2023-08-08T05:47:57;13.02;92.49
76040;SHT30;64736;50.462;4.850;2023-08-08T05:50:23;13.09;92.25
76040;SHT30;64736;50.462;4.850;2023-08-08T05:52:49;13.16;92.08
76040;SHT30;64736;50.462;4.850;2023-08-08T05:55:15;13.21;91.94
76040;SHT30;64736;50.462;4.850;2023-08-08T05:57:40;13.26;91.68
76040;SHT30;64736;50.462;4.850;2023-08-08T06:00:07;13.30;91.70
76040;SHT30;64736;50.462;4.850;2023-08-08T06:02:37;13.38;91.52
76040;SHT30;64736;50.462;4.850;2023-08-08T06:05:04;13.41;91.33
76040;SHT30;64736;50.462;4.850;2023-08-08T06:07:30;13.46;91.18
76040;SHT30;64736;50.462;4.850;2023-08-08T06:09:55;13.58;90.80
76040;SHT30;64736;50.462;4.850;2023-08-08T06:12:21;13.68;90.71
76040;SHT30;64736;50.462;4.850;2023-08-08T06:14:47;13.69;90.42
76040;SHT30;64736;50.462;4.850;2023-08-08T06:17:13;13.74;90.20
76040;SHT30;64736;50.462;4.850;2023-08-08T06:19:40;13.75;90.41
76040;SHT30;64736;50.462;4.850;2023-08-08T06:22:05;13.82;90.08
76040;SHT30;64736;50.462;4.850;2023-08-08T06:24:31;13.86;90.01
76040;SHT30;64736;50.462;4.850;2023-08-08T06:26:57;13.96;89.70
76040;SHT30;64736;50.462;4.850;2023-08-08T06:29:22;13.98;89.59
76040;SHT30;64736;50.462;4.850;2023-08-08T06:31:48;13.99;89.57
76040;SHT30;64736;50.462;4.850;2023-08-08T06:34:14;14.08;89.36
76040;SHT30;64736;50.462;4.850;2023-08-08T06:36:40;14.13;89.15
76040;SHT30;64736;50.462;4.850;2023-08-08T06:39:06;14.19;88.90
76040;SHT30;64736;50.462;4.850;2023-08-08T06:41:32;14.33;88.74
76040;SHT30;64736;50.462;4.850;2023-08-08T06:43:58;14.44;88.43
76040;SHT30;64736;50.462;4.850;2023-08-08T06:46:23;14.53;87.97
76040;SHT30;64736;50.462;4.850;2023-08-08T06:48:50;14.48;87.69
76040;SHT30;64736;50.462;4.850;2023-08-08T06:51:18;14.53;87.84
76040;SHT30;64736;50.462;4.850;2023-08-08T06:53:43;14.59;87.55
76040;SHT30;64736;50.462;4.850;2023-08-08T06:56:09;14.67;87.31
76040;SHT30;64736;50.462;4.850;2023-08-08T06:58:34;14.89;86.63
76040;SHT30;64736;50.462;4.850;2023-08-08T07:01:00;15.03;86.06
76040;SHT30;64736;50.462;4.850;2023-08-08T07:03:25;15.18;85.91
76040;SHT30;64736;50.462;4.850;2023-08-08T07:05:51;15.36;85.19
76040;SHT30;64736;50.462;4.850;2023-08-08T07:08:18;15.44;84.94
76040;SHT30;64736;50.462;4.850;2023-08-08T07:10:44;15.33;85.05
76040;SHT30;64736;50.462;4.850;2023-08-08T07:13:10;15.29;85.39
76040;SHT30;64736;50.462;4.850;2023-08-08T07:15:35;15.32;85.43
76040;SHT30;64736;50.462;4.850;2023-08-08T07:18:02;15.44;84.93
76040;SHT30;64736;50.462;4.850;2023-08-08T07:20:27;15.42;85.22
76040;SHT30;64736;50.462;4.850;2023-08-08T07:22:54;15.43;84.67
76040;SHT30;64736;50.462;4.850;2023-08-08T07:25:20;15.46;85.34
76040;SHT30;64736;50.462;4.850;2023-08-08T07:27:45;15.46;84.98
76040;SHT30;64736;50.462;4.850;2023-08-08T07:30:11;15.46;85.04
76040;SHT30;64736;50.462;4.850;2023-08-08T07:32:37;15.51;85.19
76040;SHT30;64736;50.462;4.850;2023-08-08T07:35:03;15.61;84.65
76040;SHT30;64736;50.462;4.850;2023-08-08T07:37:31;15.69;84.33
76040;SHT30;64736;50.462;4.850;2023-08-08T07:39:58;15.80;84.04
76040;SHT30;64736;50.462;4.850;2023-08-08T07:42:23;16.00;83.66
76040;SHT30;64736;50.462;4.850;2023-08-08T07:44:49;16.08;82.73
76040;SHT30;64736;50.462;4.850;2023-08-08T07:47:14;16.01;83.10
76040;SHT30;64736;50.462;4.850;2023-08-08T07:49:40;16.15;82.77
76040;SHT30;64736;50.462;4.850;2023-08-08T07:52:05;16.14;82.13
76040;SHT30;64736;50.462;4.850;2023-08-08T07:54:32;16.14;82.59
76040;SHT30;64736;50.462;4.850;2023-08-08T07:56:58;16.21;81.91
76040;SHT30;64736;50.462;4.850;2023-08-08T07:59:23;16.38;81.43
76040;SHT30;64736;50.462;4.850;2023-08-08T08:01:52;16.52;81.46
76040;SHT30;64736;50.462;4.850;2023-08-08T08:04:18;16.51;81.40
76040;SHT30;64736;50.462;4.850;2023-08-08T08:06:43;16.38;81.12
76040;SHT30;64736;50.462;4.850;2023-08-08T08:09:09;16.51;80.63
76040;SHT30;64736;50.462;4.850;2023-08-08T08:11:34;16.48;80.52
76040;SHT30;64736;50.462;4.850;2023-08-08T08:14:00;16.36;80.68
76040;SHT30;64736;50.462;4.850;2023-08-08T08:16:26;16.46;80.55
76040;SHT30;64736;50.462;4.850;2023-08-08T08:18:51;16.63;80.01
76040;SHT30;64736;50.462;4.850;2023-08-08T08:21:17;16.79;79.63
76040;SHT30;64736;50.462;4.850;2023-08-08T08:23:43;16.80;78.80
76040;SHT30;64736;50.462;4.850;2023-08-08T08:26:09;16.79;79.18
76040;SHT30;64736;50.462;4.850;2023-08-08T08:28:35;16.52;79.72
76040;SHT30;64736;50.462;4.850;2023-08-08T08:31:05;16.70;79.62
76040;SHT30;64736;50.462;4.850;2023-08-08T08:33:31;16.69;78.65
76040;SHT30;64736;50.462;4.850;2023-08-08T08:35:57;16.70;78.92
76040;SHT30;64736;50.462;4.850;2023-08-08T08:38:22;16.74;78.86
76040;SHT30;64736;50.462;4.850;2023-08-08T08:40:48;16.70;79.20
76040;SHT30;64736;50.462;4.850;2023-08-08T08:43:15;16.79;79.56
76040;SHT30;64736;50.462;4.850;2023-08-08T08:45:44;16.87;78.16
76040;SHT30;64736;50.462;4.850;2023-08-08T08:48:15;17.30;77.55
76040;SHT30;64736;50.462;4.850;2023-08-08T08:50:42;17.36;75.92
76040;SHT30;64736;50.462;4.850;2023-08-08T08:53:09;17.41;75.64
76040;SHT30;64736;50.462;4.850;2023-08-08T08:55:36;17.48;75.75
76040;SHT30;64736;50.462;4.850;2023-08-08T08:58:03;17.49;75.17
76040;SHT30;64736;50.462;4.850;2023-08-08T09:00:30;17.07;76.99
76040;SHT30;64736;50.462;4.850;2023-08-08T09:02:56;17.56;75.87
76040;SHT30;64736;50.462;4.850;2023-08-08T09:05:22;17.78;75.34
76040;SHT30;64736;50.462;4.850;2023-08-08T09:07:50;17.75;73.77
76040;SHT30;64736;50.462;4.850;2023-08-08T09:10:17;17.70;74.08
76040;SHT30;64736;50.462;4.850;2023-08-08T09:12:44;17.78;73.55
76040;SHT30;64736;50.462;4.850;2023-08-08T09:15:11;18.03;73.36
76040;SHT30;64736;50.462;4.850;2023-08-08T09:17:43;18.17;73.42
76040;SHT30;64736;50.462;4.850;2023-08-08T09:20:11;17.76;73.33
76040;SHT30;64736;50.462;4.850;2023-08-08T09:22:37;17.79;73.30
76040;SHT30;64736;50.462;4.850;2023-08-08T09:25:05;17.79;73.32
76040;SHT30;64736;50.462;4.850;2023-08-08T09:27:30;18.09;72.62
76040;SHT30;64736;50.462;4.850;2023-08-08T09:29:56;18.24;71.10
76040;SHT30;64736;50.462;4.850;2023-08-08T09:32:22;18.43;70.74
76040;SHT30;64736;50.462;4.850;2023-08-08T09:34:47;18.59;70.70
76040;SHT30;64736;50.462;4.850;2023-08-08T09:37:13;18.31;70.80
76040;SHT30;64736;50.462;4.850;2023-08-08T09:39:40;18.21;71.37
76040;SHT30;64736;50.462;4.850;2023-08-08T09:42:08;18.11;71.37
76040;SHT30;64736;50.462;4.850;2023-08-08T09:44:33;17.97;71.77
76040;SHT30;64736;50.462;4.850;2023-08-08T09:47:00;17.96;71.65
76040;SHT30;64736;50.462;4.850;2023-08-08T09:49:26;17.99;71.63
76040;SHT30;64736;50.462;4.850;2023-08-08T09:51:52;18.03;71.49
76040;SHT30;64736;50.462;4.850;2023-08-08T09:54:18;18.13;71.06
76040;SHT30;64736;50.462;4.850;2023-08-08T09:56:44;18.49;69.97
76040;SHT30;64736;50.462;4.850;2023-08-08T09:59:13;19.17;69.01
76040;SHT30;64736;50.462;4.850;2023-08-08T10:01:39;18.57;70.33
76040;SHT30;64736;50.462;4.850;2023-08-08T10:04:06;19.92;66.86
76040;SHT30;64736;50.462;4.850;2023-08-08T10:06:32;19.50;67.41
76040;SHT30;64736;50.462;4.850;2023-08-08T10:09:01;19.62;66.24
76040;SHT30;64736;50.462;4.850;2023-08-08T10:11:30;20.32;65.17
76040;SHT30;64736;50.462;4.850;2023-08-08T10:13:57;20.01;63.31
76040;SHT30;64736;50.462;4.850;2023-08-08T10:16:23;20.28;62.63
76040;SHT30;64736;50.462;4.850;2023-08-08T10:19:00;20.26;62.81
76040;SHT30;64736;50.462;4.850;2023-08-08T10:21:26;20.54;61.95
76040;SHT30;64736;50.462;4.850;2023-08-08T10:24:06;20.54;61.09
76040;SHT30;64736;50.462;4.850;2023-08-08T10:26:32;21.39;58.93
76040;SHT30;64736;50.462;4.850;2023-08-08T10:29:00;21.24;58.58
76040;SHT30;64736;50.462;4.850;2023-08-08T10:31:26;21.08;60.16
76040;SHT30;64736;50.462;4.850;2023-08-08T10:34:03;20.88;60.99
76040;SHT30;64736;50.462;4.850;2023-08-08T10:36:50;20.67;61.79
76040;SHT30;64736;50.462;4.850;2023-08-08T10:39:17;20.04;62.54
76040;SHT30;64736;50.462;4.850;2023-08-08T10:41:48;19.64;63.26
76040;SHT30;64736;50.462;4.850;2023-08-08T10:44:21;19.58;64.14
76040;SHT30;64736;50.462;4.850;2023-08-08T10:46:48;19.46;64.30
76040;SHT30;64736;50.462;4.850;2023-08-08T10:49:17;19.26;65.49
76040;SHT30;64736;50.462;4.850;2023-08-08T10:51:44;19.07;66.60
76040;SHT30;64736;50.462;4.850;2023-08-08T10:54:38;18.86;67.01
76040;SHT30;64736;50.462;4.850;2023-08-08T10:57:04;18.65;66.69
76040;SHT30;64736;50.462;4.850;2023-08-08T10:59:40;18.49;67.19
76040;SHT30;64736;50.462;4.850;2023-08-08T11:02:06;18.34;67.16
76040;SHT30;64736;50.462;4.850;2023-08-08T11:04:33;18.28;67.81
76040;SHT30;64736;50.462;4.850;2023-08-08T11:07:00;18.24;68.54
76040;SHT30;64736;50.462;4.850;2023-08-08T11:09:26;18.11;68.56
76040;SHT30;64736;50.462;4.850;2023-08-08T11:11:52;18.07;69.67
76040;SHT30;64736;50.462;4.850;2023-08-08T11:14:19;18.06;69.70
76040;SHT30;64736;50.462;4.850;2023-08-08T11:16:47;17.97;70.59
76040;SHT30;64736;50.462;4.850;2023-08-08T11:19:14;17.94;70.74
76040;SHT30;64736;50.462;4.850;2023-08-08T11:21:42;17.93;70.68
76040;SHT30;64736;50.462;4.850;2023-08-08T11:24:08;17.79;70.85
76040;SHT30;64736;50.462;4.850;2023-08-08T11:26:36;17.86;71.03
76040;SHT30;64736;50.462;4.850;2023-08-08T11:29:03;17.63;81.75
76040;SHT30;64736;50.462;4.850;2023-08-08T11:31:30;17.58;82.66
76040;SHT30;64736;50.462;4.850;2023-08-08T11:33:57;18.17;80.80
76040;SHT30;64736;50.462;4.850;2023-08-08T11:36:24;18.92;75.73
76040;SHT30;64736;50.462;4.850;2023-08-08T11:38:51;19.06;72.74
76040;SHT30;64736;50.462;4.850;2023-08-08T11:41:20;18.84;71.18
76040;SHT30;64736;50.462;4.850;2023-08-08T11:43:48;18.76;70.79
76040;SHT30;64736;50.462;4.850;2023-08-08T11:46:15;18.72;69.89
76040;SHT30;64736;50.462;4.850;2023-08-08T11:48:41;20.47;66.35
76040;SHT30;64736;50.462;4.850;2023-08-08T11:51:08;21.66;61.67
76040;SHT30;64736;50.462;4.850;2023-08-08T11:53:34;21.50;60.91
76040;SHT30;64736;50.462;4.850;2023-08-08T11:56:01;21.64;60.96
76040;SHT30;64736;50.462;4.850;2023-08-08T11:58:28;23.16;55.96
76040;SHT30;64736;50.462;4.850;2023-08-08T12:00:56;22.95;55.91
76040;SHT30;64736;50.462;4.850;2023-08-08T12:03:25;22.27;57.50
76040;SHT30;64736;50.462;4.850;2023-08-08T12:05:51;21.45;59.12
76040;SHT30;64736;50.462;4.850;2023-08-08T12:08:21;20.88;60.09
76040;SHT30;64736;50.462;4.850;2023-08-08T12:10:51;20.43;61.81
76040;SHT30;64736;50.462;4.850;2023-08-08T12:13:23;20.16;62.13
76040;SHT30;64736;50.462;4.850;2023-08-08T12:15:49;19.93;63.27
76040;SHT30;64736;50.462;4.850;2023-08-08T12:18:18;19.53;63.42
76040;SHT30;64736;50.462;4.850;2023-08-08T12:20:45;19.46;64.31
76040;SHT30;64736;50.462;4.850;2023-08-08T12:23:11;19.19;64.83
76040;SHT30;64736;50.462;4.850;2023-08-08T12:25:37;19.00;65.75
76040;SHT30;64736;50.462;4.850;2023-08-08T12:28:03;18.95;65.69
76040;SHT30;64736;50.462;4.850;2023-08-08T12:30:30;18.86;66.18
76040;SHT30;64736;50.462;4.850;2023-08-08T12:32:56;18.66;67.20
76040;SHT30;64736;50.462;4.850;2023-08-08T12:35:22;18.65;67.59
76040;SHT30;64736;50.462;4.850;2023-08-08T12:37:48;18.64;67.41
76040;SHT30;64736;50.462;4.850;2023-08-08T12:40:13;18.65;67.62
76040;SHT30;64736;50.462;4.850;2023-08-08T12:42:39;18.61;68.32
76040;SHT30;64736;50.462;4.850;2023-08-08T12:45:06;18.57;68.40
76040;SHT30;64736;50.462;4.850;2023-08-08T12:47:32;18.48;67.99
76040;SHT30;64736;50.462;4.850;2023-08-08T12:50:01;18.33;67.04
76040;SHT30;64736;50.462;4.850;2023-08-08T12:52:27;18.17;67.76
76040;SHT30;64736;50.462;4.850;2023-08-08T12:54:52;18.65;67.75
76040;SHT30;64736;50.462;4.850;2023-08-08T12:57:18;18.66;73.36
76040;SHT30;64736;50.462;4.850;2023-08-08T12:59:44;18.03;75.44
76040;SHT30;64736;50.462;4.850;2023-08-08T13:02:09;17.89;74.18
76040;SHT30;64736;50.462;4.850;2023-08-08T13:04:35;18.00;73.86
76040;SHT30;64736;50.462;4.850;2023-08-08T13:07:01;17.91;72.15
76040;SHT30;64736;50.462;4.850;2023-08-08T13:09:26;17.93;72.18
76040;SHT30;64736;50.462;4.850;2023-08-08T13:11:52;18.04;72.14
76040;SHT30;64736;50.462;4.850;2023-08-08T13:14:21;18.03;71.73
76040;SHT30;64736;50.462;4.850;2023-08-08T13:16:46;17.90;71.19
76040;SHT30;64736;50.462;4.850;2023-08-08T13:19:12;18.06;71.21
76040;SHT30;64736;50.462;4.850;2023-08-08T13:21:38;18.11;70.61
76040;SHT30;64736;50.462;4.850;2023-08-08T13:24:05;18.30;70.83
76040;SHT30;64736;50.462;4.850;2023-08-08T13:26:31;18.41;70.14
76040;SHT30;64736;50.462;4.850;2023-08-08T13:28:57;18.49;70.29
76040;SHT30;64736;50.462;4.850;2023-08-08T13:31:22;18.58;69.45
76040;SHT30;64736;50.462;4.850;2023-08-08T13:33:48;18.93;68.58
76040;SHT30;64736;50.462;4.850;2023-08-08T13:36:14;19.13;68.00
76040;SHT30;64736;50.462;4.850;2023-08-08T13:38:40;19.06;67.95
76040;SHT30;64736;50.462;4.850;2023-08-08T13:41:05;19.54;66.85
76040;SHT30;64736;50.462;4.850;2023-08-08T13:43:31;19.71;65.88
76040;SHT30;64736;50.462;4.850;2023-08-08T13:45:56;20.37;64.66
76040;SHT30;64736;50.462;4.850;2023-08-08T13:48:22;20.32;64.42
76040;SHT30;64736;50.462;4.850;2023-08-08T13:50:48;19.82;66.88
76040;SHT30;64736;50.462;4.850;2023-08-08T13:53:13;19.85;65.55
76040;SHT30;64736;50.462;4.850;2023-08-08T13:55:39;19.54;65.74
76040;SHT30;64736;50.462;4.850;2023-08-08T13:58:07;19.51;66.32
76040;SHT30;64736;50.462;4.850;2023-08-08T14:00:33;19.31;66.06
76040;SHT30;64736;50.462;4.850;2023-08-08T14:03:00;18.89;67.66
76040;SHT30;64736;50.462;4.850;2023-08-08T14:05:26;18.95;68.44
76040;SHT30;64736;50.462;4.850;2023-08-08T14:07:53;19.05;68.20
76040;SHT30;64736;50.462;4.850;2023-08-08T14:10:19;19.17;67.95
76040;SHT30;64736;50.462;4.850;2023-08-08T14:12:45;19.31;67.83
76040;SHT30;64736;50.462;4.850;2023-08-08T14:15:10;19.47;66.84
76040;SHT30;64736;50.462;4.850;2023-08-08T14:17:36;19.58;66.60
76040;SHT30;64736;50.462;4.850;2023-08-08T14:20:02;19.37;66.26
76040;SHT30;64736;50.462;4.850;2023-08-08T14:22:28;19.44;65.76
76040;SHT30;64736;50.462;4.850;2023-08-08T14:24:53;19.72;64.97
76040;SHT30;64736;50.462;4.850;2023-08-08T14:27:19;19.53;65.13
76040;SHT30;64736;50.462;4.850;2023-08-08T14:29:44;19.60;64.63
76040;SHT30;64736;50.462;4.850;2023-08-08T14:32:10;19.43;65.13
76040;SHT30;64736;50.462;4.850;2023-08-08T14:34:36;19.43;64.83
76040;SHT30;64736;50.462;4.850;2023-08-08T14:37:03;19.65;64.93
76040;SHT30;64736;50.462;4.850;2023-08-08T14:39:30;19.88;65.30
76040;SHT30;64736;50.462;4.850;2023-08-08T14:41:56;19.99;64.96
76040;SHT30;64736;50.462;4.850;2023-08-08T14:44:22;20.02;64.47
76040;SHT30;64736;50.462;4.850;2023-08-08T14:46:48;20.06;64.50
76040;SHT30;64736;50.462;4.850;2023-08-08T14:49:14;20.08;64.73
76040;SHT30;64736;50.462;4.850;2023-08-08T14:51:39;20.06;64.84
76040;SHT30;64736;50.462;4.850;2023-08-08T14:54:05;20.02;65.44
76040;SHT30;64736;50.462;4.850;2023-08-08T14:56:31;19.91;65.62
76040;SHT30;64736;50.462;4.850;2023-08-08T14:58:56;19.75;65.75
76040;SHT30;64736;50.462;4.850;2023-08-08T15:01:22;19.91;65.98
76040;SHT30;64736;50.462;4.850;2023-08-08T15:03:49;19.91;65.70
76040;SHT30;64736;50.462;4.850;2023-08-08T15:06:14;20.37;64.90
76040;SHT30;64736;50.462;4.850;2023-08-08T15:08:42;20.39;65.20
76040;SHT30;64736;50.462;4.850;2023-08-08T15:11:08;19.98;66.35
76040;SHT30;64736;50.462;4.850;2023-08-08T15:13:34;20.20;65.81
76040;SHT30;64736;50.462;4.850;2023-08-08T15:16:00;20.09;65.46
76040;SHT30;64736;50.462;4.850;2023-08-08T15:18:26;20.16;65.39
76040;SHT30;64736;50.462;4.850;2023-08-08T15:20:52;20.13;65.80
76040;SHT30;64736;50.462;4.850;2023-08-08T15:23:17;19.58;66.31
76040;SHT30;64736;50.462;4.850;2023-08-08T15:25:43;19.51;66.49
76040;SHT30;64736;50.462;4.850;2023-08-08T15:28:09;19.50;66.05